createdAt,value
2023-08-31T00:01:07.959Z,6.72
2023-08-31T00:04:29.944Z,3.47
2023-08-31T00:07:52.183Z,5.15
2023-08-31T00:11:13.937Z,4.70
2023-08-31T00:14:35.502Z,4.03
2023-08-31T00:17:59.626Z,4.78
2023-08-31T00:21:21.207Z,4.07
2023-08-31T00:24:43.553Z,5.18
2023-08-31T00:28:06.512Z,5.75
2023-08-31T00:31:28.830Z,5.55
2023-08-31T00:34:52.035Z,5.53
2023-08-31T00:38:13.774Z,5.40
2023-08-31T00:41:35.752Z,4.28
2023-08-31T00:44:57.364Z,3.78
2023-08-31T00:48:20.211Z,5.72
2023-08-31T00:51:43.945Z,3.65
2023-08-31T00:55:07.551Z,6.60
2023-08-31T00:58:29.089Z,4.40
2023-08-31T01:01:59.817Z,6.40
2023-08-31T01:05:31.882Z,6.30
2023-08-31T01:09:08.673Z,7.55
2023-08-31T01:12:39.212Z,7.13
2023-08-31T01:16:05.948Z,7.97
2023-08-31T01:19:42.643Z,6.97
2023-08-31T01:23:09.249Z,6.05
2023-08-31T01:26:33.036Z,7.72
2023-08-31T01:29:57.128Z,6.90
2023-08-31T01:33:19.755Z,6.65
2023-08-31T01:36:46.391Z,5.30
2023-08-31T01:40:15.556Z,6.80
2023-08-31T01:43:39.620Z,6.03
2023-08-31T01:47:07.876Z,5.72
2023-08-31T01:50:29.894Z,6.10
2023-08-31T01:53:51.817Z,6.30
2023-08-31T01:57:14.358Z,4.35
2023-08-31T02:01:01.071Z,5.28
2023-08-31T02:04:23.584Z,4.95
2023-08-31T02:07:45.282Z,3.65
2023-08-31T02:11:06.887Z,4.88
2023-08-31T02:14:28.377Z,9.85
2023-08-31T02:17:51.797Z,4.20
2023-08-31T02:21:13.710Z,4.70
2023-08-31T02:24:37.218Z,5.20
2023-08-31T02:27:58.661Z,5.13
2023-08-31T02:31:20.707Z,6.78
2023-08-31T02:34:43.944Z,6.05
2023-08-31T02:38:05.709Z,9.88
2023-08-31T02:41:27.119Z,8.05
2023-08-31T02:44:48.486Z,6.25
2023-08-31T02:48:10.363Z,5.90
2023-08-31T02:51:34.311Z,7.75
2023-08-31T02:54:56.029Z,8.05
2023-08-31T02:58:17.782Z,6.25
2023-08-31T03:01:40.313Z,8.32
2023-08-31T03:05:02.631Z,6.13
2023-08-31T03:08:26.146Z,8.07
2023-08-31T03:11:47.838Z,6.10
2023-08-31T03:15:11.683Z,7.90
2023-08-31T03:18:33.929Z,7.35
2023-08-31T03:21:55.958Z,5.40
2023-08-31T03:25:19.061Z,6.00
2023-08-31T03:28:43.249Z,6.70
2023-08-31T03:32:05.782Z,6.47
2023-08-31T03:35:29.823Z,6.75
2023-08-31T03:38:54.284Z,6.15
2023-08-31T03:42:17.967Z,6.63
2023-08-31T03:45:39.629Z,6.05
2023-08-31T03:49:01.059Z,5.55
2023-08-31T03:52:22.445Z,5.45
2023-08-31T03:55:43.804Z,5.00
2023-08-31T03:59:07.786Z,5.60
2023-08-31T04:02:30.063Z,7.20
2023-08-31T04:05:56.220Z,5.60
2023-08-31T04:09:18.309Z,5.03
2023-08-31T04:12:40.613Z,6.70
2023-08-31T04:16:04.723Z,5.32
2023-08-31T04:19:26.871Z,6.55
2023-08-31T04:22:48.657Z,5.00
2023-08-31T04:26:14.060Z,6.20
2023-08-31T04:29:35.423Z,5.35
2023-08-31T04:32:58.721Z,5.15
2023-08-31T04:36:20.614Z,5.82
2023-08-31T04:39:42.123Z,6.03
2023-08-31T04:43:03.518Z,4.10
2023-08-31T04:46:24.909Z,5.63
2023-08-31T04:49:47.972Z,4.45
2023-08-31T04:53:09.587Z,5.28
2023-08-31T04:56:33.920Z,3.90
2023-08-31T04:59:55.398Z,4.90
2023-08-31T05:03:17.396Z,6.07
2023-08-31T05:06:40.670Z,7.30
2023-08-31T05:10:02.624Z,6.85
2023-08-31T05:13:24.462Z,5.65
2023-08-31T05:16:45.930Z,7.88
2023-08-31T05:20:11.235Z,6.50
2023-08-31T05:23:34.336Z,6.25
2023-08-31T05:26:56.002Z,5.40
2023-08-31T05:30:17.994Z,5.53
2023-08-31T05:33:39.616Z,7.50
2023-08-31T05:37:00.971Z,6.60
2023-08-31T05:40:25.161Z,7.32
2023-08-31T05:43:47.129Z,5.90
2023-08-31T05:47:08.929Z,6.57
2023-08-31T05:50:30.452Z,7.18
2023-08-31T05:53:52.569Z,9.70
2023-08-31T05:57:16.049Z,5.75
2023-08-31T06:00:39.756Z,6.75
2023-08-31T06:04:01.420Z,6.07
2023-08-31T06:07:23.051Z,6.90
2023-08-31T06:10:44.656Z,6.45
2023-08-31T06:14:09.205Z,7.00
2023-08-31T06:17:31.224Z,9.38
2023-08-31T06:20:53.183Z,7.00
2023-08-31T06:24:14.591Z,8.43
2023-08-31T06:27:37.099Z,8.05
2023-08-31T06:31:00.424Z,8.68
2023-08-31T06:34:22.125Z,11.98
2023-08-31T06:37:44.526Z,10.05
2023-08-31T06:41:06.146Z,10.82
2023-08-31T06:44:27.822Z,10.18
2023-08-31T06:47:51.516Z,11.40
2023-08-31T06:51:13.343Z,12.43
2023-08-31T06:54:34.780Z,10.07
2023-08-31T06:57:57.939Z,11.75
2023-08-31T07:01:19.625Z,10.77
2023-08-31T07:04:43.015Z,11.40
2023-08-31T07:08:04.786Z,9.98
2023-08-31T07:12:21.052Z,13.05
2023-08-31T07:15:55.965Z,10.80
2023-08-31T07:25:35.489Z,6.85
2023-08-31T07:38:11.197Z,8.57
2023-08-31T07:42:59.572Z,9.30
2023-08-31T07:46:12.688Z,10.90
2023-08-31T07:49:34.149Z,10.00
2023-08-31T07:52:55.628Z,10.95
2023-08-31T07:56:18.379Z,8.50
2023-08-31T07:59:40.799Z,8.93
2023-08-31T08:03:02.745Z,7.57
2023-08-31T08:06:24.357Z,7.18
2023-08-31T08:09:45.818Z,7.43
2023-08-31T08:13:08.607Z,8.13
2023-08-31T08:16:30.534Z,6.75
2023-08-31T08:19:52.256Z,9.27
2023-08-31T08:23:14.338Z,6.25
2023-08-31T08:26:36.159Z,9.68
2023-08-31T08:29:59.494Z,5.95
2023-08-31T08:33:21.434Z,8.48
2023-08-31T08:36:43.202Z,5.68
2023-08-31T08:40:06.393Z,5.32
2023-08-31T08:43:28.854Z,5.95
2023-08-31T08:46:53.312Z,7.03
2023-08-31T08:50:15.852Z,6.00
2023-08-31T08:53:38.998Z,6.03
2023-08-31T08:57:02.060Z,4.88
2023-08-31T09:00:23.944Z,4.28
2023-08-31T09:03:47.837Z,10.15
2023-08-31T09:07:09.481Z,6.55
2023-08-31T09:10:39.216Z,4.75
2023-08-31T09:14:01.093Z,5.97
2023-08-31T09:17:25.749Z,8.93
2023-08-31T09:20:50.044Z,3.85
2023-08-31T09:24:13.516Z,5.18
2023-08-31T09:27:39.924Z,6.95
2023-08-31T09:31:08.534Z,3.63
2023-08-31T09:34:36.490Z,2.60
2023-08-31T09:37:59.583Z,3.15
2023-08-31T09:41:21.596Z,5.20
2023-08-31T09:44:45.894Z,3.97
2023-08-31T09:48:08.378Z,2.30
2023-08-31T09:51:31.447Z,2.35
2023-08-31T09:54:56.811Z,4.15
2023-08-31T09:58:21.576Z,3.60
2023-08-31T10:01:44.791Z,2.20
2023-08-31T10:05:07.821Z,5.13
2023-08-31T10:08:32.392Z,3.22
2023-08-31T10:11:56.503Z,2.15
2023-08-31T10:15:18.734Z,2.92
2023-08-31T10:18:41.097Z,3.25
2023-08-31T10:22:04.920Z,3.65
2023-08-31T10:25:27.831Z,3.67
2023-08-31T10:28:51.280Z,3.03
2023-08-31T10:32:19.701Z,2.42
2023-08-31T10:35:50.160Z,2.17
2023-08-31T10:39:18.103Z,6.18
2023-08-31T10:42:47.784Z,7.07
2023-08-31T10:46:36.166Z,4.72
2023-08-31T10:50:00.700Z,4.32
2023-08-31T10:53:30.690Z,2.80
2023-08-31T10:57:07.809Z,2.47
2023-08-31T11:00:53.586Z,4.22
2023-08-31T11:04:16.368Z,3.40
2023-08-31T11:07:39.030Z,4.93
2023-08-31T11:11:00.665Z,3.35
2023-08-31T11:14:22.457Z,2.45
2023-08-31T11:17:45.236Z,3.30
2023-08-31T11:21:08.899Z,2.28
2023-08-31T11:24:30.503Z,3.10
2023-08-31T11:27:56.291Z,2.85
2023-08-31T11:31:25.643Z,5.70
2023-08-31T11:34:47.878Z,3.05
2023-08-31T11:38:11.445Z,4.88
2023-08-31T11:41:36.860Z,6.55
2023-08-31T11:44:58.571Z,2.38
2023-08-31T11:48:20.768Z,2.63
2023-08-31T11:51:44.531Z,4.25
2023-08-31T11:55:13.036Z,4.20
2023-08-31T11:58:34.796Z,4.10
2023-08-31T12:01:59.273Z,3.00
2023-08-31T12:05:20.780Z,3.88
2023-08-31T12:08:42.314Z,2.53
2023-08-31T12:12:06.916Z,3.20
2023-08-31T12:15:32.940Z,3.47
2023-08-31T12:18:55.589Z,2.95
2023-08-31T12:22:17.438Z,3.38
2023-08-31T12:25:39.615Z,2.22
2023-08-31T12:29:02.730Z,5.18
2023-08-31T12:32:24.629Z,3.47
2023-08-31T12:35:47.315Z,2.33
2023-08-31T12:39:10.968Z,2.83
2023-08-31T12:42:32.509Z,1.58
2023-08-31T12:45:55.575Z,2.45
2023-08-31T12:49:17.542Z,2.65
2023-08-31T12:52:45.253Z,2.53
2023-08-31T12:56:08.517Z,1.67
2023-08-31T12:59:30.275Z,1.67
2023-08-31T13:02:53.772Z,1.45
2023-08-31T13:06:17.502Z,2.20
2023-08-31T13:09:39.580Z,2.08
2023-08-31T13:13:01.785Z,3.05
2023-08-31T13:16:25.732Z,2.03
2023-08-31T13:19:48.724Z,3.00
2023-08-31T13:23:10.471Z,2.95
2023-08-31T13:26:32.112Z,3.05
2023-08-31T13:29:54.297Z,2.65
2023-08-31T13:33:16.369Z,4.70
2023-08-31T13:36:39.763Z,2.45
2023-08-31T13:40:02.199Z,2.42
2023-08-31T13:43:24.150Z,5.57
2023-08-31T13:46:45.563Z,3.65
2023-08-31T13:50:08.280Z,3.10
2023-08-31T13:53:31.275Z,3.97
2023-08-31T13:56:52.640Z,4.53
2023-08-31T14:00:15.602Z,5.05
2023-08-31T14:03:37.119Z,4.30
2023-08-31T14:06:58.777Z,3.33
2023-08-31T14:10:21.661Z,2.67
2023-08-31T14:13:47.573Z,2.78
2023-08-31T14:17:09.935Z,1.63
2023-08-31T14:20:31.434Z,3.58
2023-08-31T14:23:56.586Z,2.42
2023-08-31T14:27:19.797Z,2.33
2023-08-31T14:30:41.409Z,4.45
2023-08-31T14:34:03.359Z,3.80
2023-08-31T14:37:25.912Z,2.85
2023-08-31T14:40:47.350Z,2.88
2023-08-31T14:44:10.574Z,1.73
2023-08-31T14:47:32.478Z,3.67
2023-08-31T14:50:54.443Z,3.67
2023-08-31T14:54:15.914Z,5.03
2023-08-31T14:57:37.272Z,4.57
2023-08-31T15:01:00.206Z,4.15
2023-08-31T15:04:22.375Z,4.25
2023-08-31T15:07:43.953Z,4.28
2023-08-31T15:11:05.611Z,6.90
2023-08-31T15:14:27.880Z,3.40
2023-08-31T15:17:50.835Z,2.80
2023-08-31T15:21:12.746Z,3.95
2023-08-31T15:24:34.237Z,6.63
2023-08-31T15:27:56.375Z,3.90
2023-08-31T15:31:18.176Z,4.78
2023-08-31T15:34:41.641Z,4.10
2023-08-31T15:38:03.740Z,4.50
2023-08-31T15:41:25.910Z,3.17
2023-08-31T15:44:47.536Z,3.00
2023-08-31T15:48:09.007Z,3.33
2023-08-31T15:51:34.419Z,2.78
2023-08-31T15:54:56.288Z,6.03
2023-08-31T15:58:18.262Z,5.18
2023-08-31T16:01:40.249Z,4.97
2023-08-31T16:05:06.452Z,3.50
2023-08-31T16:08:30.953Z,4.68
2023-08-31T16:11:52.709Z,4.70
2023-08-31T16:15:14.668Z,3.40
2023-08-31T16:18:36.320Z,3.20
2023-08-31T16:21:58.299Z,3.40
2023-08-31T16:25:22.275Z,3.00
2023-08-31T16:28:43.867Z,2.05
2023-08-31T16:32:06.151Z,5.68
2023-08-31T16:35:29.811Z,2.20
2023-08-31T16:38:51.531Z,3.28
2023-08-31T16:42:16.000Z,1.98
2023-08-31T16:45:37.295Z,3.45
2023-08-31T16:48:59.084Z,2.45
2023-08-31T16:52:20.964Z,2.42
2023-08-31T16:55:43.178Z,1.98
2023-08-31T16:59:06.201Z,4.20
2023-08-31T17:02:28.091Z,2.90
2023-08-31T17:05:53.431Z,1.75
2023-08-31T17:09:15.574Z,2.60
2023-08-31T17:12:37.531Z,2.55
2023-08-31T17:16:00.337Z,3.05
2023-08-31T17:19:22.219Z,2.10
2023-08-31T17:22:43.702Z,1.65
2023-08-31T17:26:06.116Z,7.07
2023-08-31T17:29:28.265Z,2.63
2023-08-31T17:32:51.714Z,3.03
2023-08-31T17:36:14.463Z,2.33
2023-08-31T17:39:36.133Z,2.35
2023-08-31T17:42:57.780Z,2.83
2023-08-31T17:46:19.752Z,3.03
2023-08-31T17:49:43.641Z,2.65
2023-08-31T17:53:05.966Z,2.22
2023-08-31T17:56:28.169Z,1.90
2023-08-31T17:59:50.169Z,2.63
2023-08-31T18:03:12.168Z,3.90
2023-08-31T18:06:37.408Z,2.53
2023-08-31T18:09:59.149Z,3.00
2023-08-31T18:13:21.118Z,3.08
2023-08-31T18:16:42.720Z,2.17
2023-08-31T18:20:04.617Z,4.10
2023-08-31T18:23:29.574Z,2.95
2023-08-31T18:26:51.796Z,2.55
2023-08-31T18:30:14.997Z,2.10
2023-08-31T18:33:37.678Z,4.40
2023-08-31T18:36:59.481Z,2.42
2023-08-31T18:40:22.928Z,3.15
2023-08-31T18:43:46.431Z,2.33
2023-08-31T18:47:08.532Z,2.10
2023-08-31T18:50:30.158Z,2.72
2023-08-31T18:53:51.682Z,2.05
2023-08-31T18:57:15.040Z,3.13
2023-08-31T19:00:37.244Z,2.80
2023-08-31T19:03:58.876Z,3.78
2023-08-31T19:07:20.527Z,2.38
2023-08-31T19:10:41.939Z,3.67
2023-08-31T19:14:05.047Z,2.58
2023-08-31T19:17:26.768Z,2.53
2023-08-31T19:20:48.559Z,3.88
2023-08-31T19:24:10.951Z,3.25
2023-08-31T19:27:32.132Z,4.57
2023-08-31T19:30:55.046Z,2.80
2023-08-31T19:34:17.050Z,3.55
2023-08-31T19:37:38.852Z,3.75
2023-08-31T19:41:00.578Z,4.40
2023-08-31T19:44:23.098Z,3.95
2023-08-31T19:47:48.444Z,3.97
2023-08-31T19:51:10.818Z,3.30
2023-08-31T19:54:32.630Z,3.40
2023-08-31T19:57:54.522Z,4.00
2023-08-31T20:01:15.981Z,4.18
2023-08-31T20:04:39.958Z,2.50
2023-08-31T20:08:02.626Z,3.63
2023-08-31T20:11:24.512Z,3.08
2023-08-31T20:14:46.990Z,4.05
2023-08-31T20:18:08.598Z,3.35
2023-08-31T20:21:31.506Z,3.63
2023-08-31T20:24:53.184Z,3.47
2023-08-31T20:28:15.189Z,2.88
2023-08-31T20:31:38.143Z,3.03
2023-08-31T20:34:59.998Z,2.33
2023-08-31T20:38:23.369Z,3.13
2023-08-31T20:41:45.656Z,3.78
2023-08-31T20:45:11.699Z,3.65
2023-08-31T20:48:33.462Z,6.38
2023-08-31T20:51:54.837Z,3.58
2023-08-31T20:55:18.227Z,3.80
2023-08-31T20:58:41.164Z,3.60
2023-08-31T21:02:02.598Z,5.65
2023-08-31T21:05:24.584Z,3.65
2023-08-31T21:08:47.204Z,4.88
2023-08-31T21:12:11.038Z,3.40
2023-08-31T21:15:33.474Z,2.83
2023-08-31T21:18:58.667Z,3.38
2023-08-31T21:22:20.278Z,2.50
2023-08-31T21:25:43.281Z,2.90
2023-08-31T21:29:08.063Z,2.78
2023-08-31T21:32:29.565Z,3.60
2023-08-31T21:35:51.904Z,2.92
2023-08-31T21:39:13.911Z,3.58
2023-08-31T21:42:35.475Z,3.92
2023-08-31T21:46:00.968Z,4.15
2023-08-31T21:49:22.746Z,2.47
2023-08-31T21:52:44.733Z,3.30
2023-08-31T21:56:08.066Z,3.30
2023-08-31T21:59:29.857Z,4.38
2023-08-31T22:02:54.514Z,4.20
2023-08-31T22:06:16.673Z,5.15
2023-08-31T22:09:38.522Z,2.35
2023-08-31T22:13:00.476Z,6.22
2023-08-31T22:16:29.326Z,2.33
2023-08-31T22:19:53.633Z,3.03
2023-08-31T22:23:16.218Z,6.57
2023-08-31T22:26:38.653Z,5.10
2023-08-31T22:30:00.640Z,2.95
2023-08-31T22:33:22.747Z,3.67
2023-08-31T22:36:45.966Z,2.53
2023-08-31T22:40:09.637Z,2.80
2023-08-31T22:43:32.366Z,2.53
2023-08-31T22:46:53.784Z,3.42
2023-08-31T22:50:15.261Z,3.55
2023-08-31T22:53:37.921Z,3.33
2023-08-31T22:56:59.309Z,3.20
2023-08-31T23:00:20.815Z,3.85
2023-08-31T23:03:43.116Z,3.53
2023-08-31T23:07:05.264Z,5.35
2023-08-31T23:10:32.113Z,5.60
2023-08-31T23:13:53.761Z,3.08
2023-08-31T23:17:15.785Z,3.28
2023-08-31T23:20:37.470Z,3.55
2023-08-31T23:23:59.140Z,4.18
2023-08-31T23:27:22.705Z,3.45
2023-08-31T23:30:44.453Z,2.97
2023-08-31T23:34:06.388Z,4.63
2023-08-31T23:37:27.892Z,3.05
2023-08-31T23:40:49.735Z,3.40
2023-08-31T23:44:13.286Z,4.00
2023-08-31T23:47:34.958Z,3.15
2023-08-31T23:50:57.131Z,2.83
2023-08-31T23:54:18.916Z,4.78
2023-08-31T23:57:40.447Z,4.72
